Terminal Aerodrome Forecast
Issued by NWS

Home | Current Version | Previous Version | Text Only | Print | Product List | Glossary On
Versions: 1 2 3 4 5 6 7 8 9 10 11 12 13
755
FTUS44 KTSA 261720
TAFRVS
TAF
KRVS 261720Z 2618/2718 21008KT P6SM SCT050 BKN250
     FM270000 00000KT P6SM SCT100 BKN250
     FM271500 14004KT P6SM SCT250=

USA.gov is the U.S. government's official web portal to all federal, state and local government web resources and services.